Time;durP1;ratioP1;P1;durP2;ratioP2;P2;SDS_P1;SDS_P2;PMS_P1;PMS_P2;Temp;Humidity;BMP_temperature;BMP_pressure;BME280_temperature;BME280_humidity;BME280_pressure;Samples;Min_cycle;Max_cycle;Signal;HPM_P1;HPM_P2
2021/03/01 00:00:36;;;;;;;18.40;11.77;;;4.00;80.60;;;;;;6196759;28;20054;-77
2021/03/01 00:03:37;;;;;;;18.52;12.85;;;4.00;80.40;;;;;;6196550;28;20046;-76
2021/03/01 00:06:39;;;;;;;20.90;12.45;;;4.00;80.30;;;;;;6197831;28;20077;-76
2021/03/01 00:09:40;;;;;;;19.33;11.88;;;4.00;80.30;;;;;;6196476;28;20599;-76
2021/03/01 00:12:43;;;;;;;19.88;11.23;;;4.00;80.30;;;;;;6148575;28;20074;-77
2021/03/01 00:15:44;;;;;;;21.52;11.57;;;4.00;80.30;;;;;;6150425;28;20043;-77
2021/03/01 00:18:45;;;;;;;20.52;13.05;;;4.00;80.30;;;;;;6154222;28;20178;-76
2021/03/01 00:21:47;;;;;;;17.83;11.02;;;4.00;80.30;;;;;;6153352;28;20126;-77
2021/03/01 00:24:48;;;;;;;19.55;12.77;;;4.10;80.40;;;;;;6178198;28;20150;-76
2021/03/01 00:27:50;;;;;;;21.45;11.88;;;4.00;80.30;;;;;;6199320;28;20504;-76
2021/03/01 00:30:52;;;;;;;18.27;12.93;;;4.00;80.30;;;;;;6201337;28;20137;-76
2021/03/01 00:33:53;;;;;;;17.90;11.90;;;4.00;80.20;;;;;;6201170;28;20050;-77
2021/03/01 00:36:54;;;;;;;18.20;11.25;;;4.00;80.10;;;;;;6200986;28;20451;-77
2021/03/01 00:39:56;;;;;;;16.95;11.40;;;3.90;80.10;;;;;;6201425;28;20062;-76
2021/03/01 00:42:58;;;;;;;18.83;11.27;;;3.80;79.90;;;;;;6201077;28;20050;-76
2021/03/01 00:45:59;;;;;;;18.30;11.88;;;3.60;80.00;;;;;;6200997;28;20081;-77
2021/03/01 00:49:01;;;;;;;14.25;11.20;;;3.40;80.00;;;;;;6192917;28;20149;-77
2021/03/01 00:52:02;;;;;;;16.67;10.18;;;3.20;80.30;;;;;;6153088;28;20106;-76
2021/03/01 00:55:05;;;;;;;18.50;10.53;;;3.00;80.70;;;;;;6152755;28;20051;-77
2021/03/01 00:58:07;;;;;;;16.08;10.32;;;2.80;81.00;;;;;;6158095;28;20852;-77
2021/03/01 01:01:08;;;;;;;20.47;10.30;;;2.60;81.20;;;;;;6189300;28;20046;-76
2021/03/01 01:04:10;;;;;;;13.97;10.00;;;2.50;81.60;;;;;;6183475;28;20050;-77
2021/03/01 01:07:11;;;;;;;15.63;11.37;;;2.40;81.80;;;;;;6176473;28;20090;-77
2021/03/01 01:10:13;;;;;;;16.53;9.47;;;2.30;82.30;;;;;;6177201;28;20105;-76
2021/03/01 01:13:15;;;;;;;14.27;9.87;;;2.20;82.50;;;;;;6175933;28;20178;-76
2021/03/01 01:16:16;;;;;;;18.60;10.00;;;2.10;83.00;;;;;;6194325;28;20055;-76
2021/03/01 01:19:18;;;;;;;15.17;9.30;;;2.00;83.00;;;;;;6176418;28;20133;-77
2021/03/01 01:22:19;;;;;;;15.37;9.30;;;1.90;83.30;;;;;;6176573;28;20090;-77
2021/03/01 01:25:20;;;;;;;21.17;12.57;;;1.80;83.50;;;;;;6175829;28;20062;-77
2021/03/01 01:28:23;;;;;;;15.10;10.23;;;1.70;83.60;;;;;;6177491;28;20432;-77
2021/03/01 01:31:24;;;;;;;12.73;9.47;;;1.60;83.90;;;;;;6197237;28;20056;-77
2021/03/01 01:34:25;;;;;;;13.17;8.50;;;1.60;84.00;;;;;;6200301;28;20051;-76
2021/03/01 01:37:27;;;;;;;14.57;10.20;;;1.50;84.30;;;;;;6199570;28;20057;-76
2021/03/01 01:40:28;;;;;;;15.93;9.73;;;1.50;85.00;;;;;;6199461;28;20042;-76
2021/03/01 01:43:30;;;;;;;15.97;10.23;;;1.50;85.10;;;;;;6199686;28;20129;-76
2021/03/01 01:46:32;;;;;;;23.53;14.27;;;1.50;85.40;;;;;;6200100;28;20051;-76
2021/03/01 01:49:33;;;;;;;17.83;11.60;;;1.60;85.80;;;;;;6184419;28;20055;-76
2021/03/01 01:52:34;;;;;;;24.73;12.10;;;1.60;86.30;;;;;;6175040;28;20392;-76
2021/03/01 01:55:36;;;;;;;20.43;14.67;;;1.60;87.00;;;;;;6177809;28;20047;-76
2021/03/01 01:58:38;;;;;;;19.73;15.87;;;1.60;87.40;;;;;;6175171;28;20729;-76
2021/03/01 02:01:40;;;;;;;23.03;13.60;;;1.70;87.60;;;;;;6174943;28;20129;-76
2021/03/01 02:04:45;;;;;;;21.03;12.33;;;1.70;88.10;;;;;;6182692;28;20057;-76
2021/03/01 02:07:54;;;;;;;24.10;13.30;;;1.80;88.50;;;;;;6175154;28;20066;-76
2021/03/01 02:11:06;;;;;;;21.97;13.63;;;1.90;88.20;;;;;;6195678;28;20085;-76
2021/03/01 02:14:14;;;;;;;25.40;13.40;;;2.00;88.50;;;;;;6199388;28;20121;-76
2021/03/01 02:17:16;;;;;;;22.90;14.40;;;2.00;88.40;;;;;;6198877;28;20050;-76
2021/03/01 02:20:17;;;;;;;23.43;14.63;;;2.10;88.50;;;;;;6198723;28;20050;-76
2021/03/01 02:23:19;;;;;;;25.50;15.63;;;2.10;88.50;;;;;;6198519;28;20050;-76
2021/03/01 02:26:26;;;;;;;27.03;14.03;;;2.10;88.40;;;;;;6174717;28;20158;-77
2021/03/01 02:29:28;;;;;;;29.13;14.40;;;2.10;88.60;;;;;;6192857;28;20054;-77
2021/03/01 02:32:34;;;;;;;21.00;14.43;;;2.20;88.60;;;;;;6174290;28;20069;-76
2021/03/01 02:35:41;;;;;;;20.33;12.60;;;2.20;88.60;;;;;;6174525;28;20192;-77
2021/03/01 02:38:44;;;;;;;23.93;14.80;;;2.10;89.00;;;;;;6173451;28;20544;-76
2021/03/01 02:41:47;;;;;;;23.57;14.57;;;2.10;89.20;;;;;;6174037;28;20106;-76
2021/03/01 02:44:49;;;;;;;25.30;14.10;;;2.10;89.30;;;;;;6174159;28;20121;-76
2021/03/01 02:47:51;;;;;;;23.07;14.40;;;2.10;89.50;;;;;;6183235;28;20129;-76
2021/03/01 02:50:54;;;;;;;18.60;13.47;;;2.10;89.50;;;;;;6198687;28;20061;-76
2021/03/01 02:53:57;;;;;;;24.10;16.37;;;2.10;89.60;;;;;;6184595;28;20077;-77
2021/03/01 02:56:59;;;;;;;28.30;17.00;;;2.10;89.60;;;;;;6195253;28;20130;-76
2021/03/01 03:00:03;;;;;;;22.63;14.27;;;2.10;89.90;;;;;;6197578;28;20417;-77
2021/03/01 03:03:07;;;;;;;26.63;15.67;;;2.10;89.70;;;;;;6197985;28;20042;-77
2021/03/01 03:06:10;;;;;;;30.97;14.80;;;2.10;89.70;;;;;;6198071;28;20562;-77
2021/03/01 03:09:14;;;;;;;21.87;13.70;;;2.10;90.10;;;;;;6197898;28;20070;-77
2021/03/01 03:12:17;;;;;;;21.10;13.47;;;2.10;89.60;;;;;;6182040;28;20501;-77
2021/03/01 03:15:20;;;;;;;22.37;15.23;;;2.00;89.70;;;;;;6173840;28;20058;-76
2021/03/01 03:18:24;;;;;;;23.63;15.20;;;2.00;89.80;;;;;;6173482;28;20416;-77
2021/03/01 03:21:25;;;;;;;25.60;14.27;;;2.00;89.80;;;;;;6173817;28;20129;-76
2021/03/01 03:24:27;;;;;;;21.07;15.13;;;2.00;90.00;;;;;;6173388;28;20129;-76
2021/03/01 03:27:29;;;;;;;25.27;14.23;;;2.00;90.20;;;;;;6173178;28;20043;-76
2021/03/01 03:30:30;;;;;;;24.47;15.43;;;2.00;90.10;;;;;;6173707;28;20150;-77
2021/03/01 03:33:31;;;;;;;23.53;15.60;;;1.90;90.10;;;;;;6175184;28;20054;-77
2021/03/01 03:36:38;;;;;;;21.10;14.20;;;1.90;90.10;;;;;;6173508;28;20061;-77
2021/03/01 03:39:45;;;;;;;24.97;14.90;;;1.90;90.20;;;;;;6173005;28;20571;-77
2021/03/01 03:42:48;;;;;;;18.50;12.30;;;1.90;90.20;;;;;;6192689;28;20137;-77
2021/03/01 03:45:52;;;;;;;22.57;12.73;;;1.90;90.20;;;;;;6183229;28;20632;-78
2021/03/01 03:48:53;;;;;;;24.43;14.00;;;1.90;90.40;;;;;;6181825;28;20081;-78
2021/03/01 03:51:58;;;;;;;22.10;13.17;;;2.00;90.20;;;;;;6197940;28;20117;-76
2021/03/01 03:55:02;;;;;;;21.00;14.70;;;1.90;90.10;;;;;;6197603;28;20141;-76
2021/03/01 03:58:07;;;;;;;25.50;14.87;;;1.90;90.20;;;;;;6196878;28;20057;-76
2021/03/01 04:01:13;;;;;;;21.00;13.00;;;1.90;90.20;;;;;;6197026;28;20133;-76
2021/03/01 04:04:14;;;;;;;20.10;13.00;;;1.90;90.10;;;;;;6197000;28;20055;-76
2021/03/01 04:07:18;;;;;;;24.33;15.47;;;1.90;90.10;;;;;;6175943;28;20100;-76
2021/03/01 04:10:21;;;;;;;23.53;14.23;;;1.90;90.10;;;;;;6172935;28;20420;-76
2021/03/01 04:13:25;;;;;;;19.70;12.77;;;1.80;90.10;;;;;;6172231;28;20078;-76
2021/03/01 04:16:29;;;;;;;20.93;12.70;;;1.80;90.10;;;;;;6172432;28;20047;-76
2021/03/01 04:19:33;;;;;;;26.67;14.27;;;1.80;90.10;;;;;;6178808;28;20121;-76
2021/03/01 04:22:36;;;;;;;23.10;13.60;;;1.80;90.20;;;;;;6189946;28;20062;-76
2021/03/01 04:25:39;;;;;;;20.40;13.43;;;1.80;90.20;;;;;;6172663;28;20174;-77
2021/03/01 04:28:42;;;;;;;19.20;11.70;;;1.80;90.20;;;;;;6178018;28;20129;-77
2021/03/01 04:31:46;;;;;;;21.13;13.83;;;1.80;90.20;;;;;;6196606;28;20058;-76
2021/03/01 04:34:49;;;;;;;24.30;12.97;;;1.80;90.10;;;;;;6191543;28;20046;-76
2021/03/01 04:37:51;;;;;;;17.97;11.60;;;1.80;90.20;;;;;;6189908;28;20126;-77
2021/03/01 04:40:54;;;;;;;23.73;12.50;;;1.80;90.20;;;;;;6172779;28;20051;-77
2021/03/01 04:43:57;;;;;;;23.27;13.67;;;1.90;90.10;;;;;;6182243;28;20042;-77
2021/03/01 04:47:00;;;;;;;28.10;15.03;;;1.90;90.00;;;;;;6197102;28;20137;-77
2021/03/01 04:50:03;;;;;;;26.67;13.23;;;1.90;90.00;;;;;;6188000;28;20133;-77
2021/03/01 04:53:04;;;;;;;23.93;14.93;;;1.90;90.00;;;;;;6172356;28;20062;-76
2021/03/01 04:56:08;;;;;;;22.97;13.10;;;1.90;90.00;;;;;;6172434;28;20058;-76
2021/03/01 04:59:11;;;;;;;24.80;14.33;;;1.90;89.90;;;;;;6194164;28;20125;-76
2021/03/01 05:02:14;;;;;;;22.00;14.43;;;1.90;90.00;;;;;;6197438;28;20104;-77
2021/03/01 05:05:16;;;;;;;25.57;16.63;;;1.80;90.00;;;;;;6190384;28;20504;-77
2021/03/01 05:08:18;;;;;;;22.70;13.90;;;1.90;90.00;;;;;;6199790;28;20062;-76
2021/03/01 05:11:32;;;;;;;24.13;15.00;;;1.80;90.00;;;;;;6200148;28;20072;-76
2021/03/01 05:14:34;;;;;;;18.93;12.23;;;1.80;90.10;;;;;;6201187;28;20058;-76
2021/03/01 05:17:37;;;;;;;24.47;16.03;;;1.70;90.10;;;;;;6200080;28;20062;-76
2021/03/01 05:20:39;;;;;;;18.87;11.70;;;1.70;90.20;;;;;;6200256;28;20050;-76
2021/03/01 05:23:40;;;;;;;17.47;12.10;;;1.70;90.30;;;;;;6200161;28;20112;-76
2021/03/01 05:26:43;;;;;;;25.87;14.23;;;1.60;90.40;;;;;;6189451;28;20661;-77
2021/03/01 05:29:44;;;;;;;24.30;15.27;;;1.60;90.50;;;;;;6199950;28;20563;-76
2021/03/01 05:32:45;;;;;;;23.37;17.50;;;1.60;90.60;;;;;;6199925;28;20053;-76
2021/03/01 05:35:47;;;;;;;25.73;13.97;;;1.60;90.60;;;;;;6200078;28;20066;-77
2021/03/01 05:38:48;;;;;;;25.53;14.23;;;1.50;90.60;;;;;;6200485;28;20436;-78
2021/03/01 05:41:53;;;;;;;24.33;15.17;;;1.50;90.80;;;;;;6192035;28;20050;-76
2021/03/01 05:44:55;;;;;;;19.90;15.00;;;1.50;90.80;;;;;;6200022;28;20142;-76
2021/03/01 05:47:57;;;;;;;21.93;15.70;;;1.50;90.80;;;;;;6199767;28;20412;-76
2021/03/01 05:51:01;;;;;;;23.97;14.60;;;1.40;90.80;;;;;;6200488;28;20416;-77
2021/03/01 05:54:05;;;;;;;23.70;15.33;;;1.40;90.90;;;;;;6201209;28;20077;-77
2021/03/01 05:57:08;;;;;;;19.60;14.07;;;1.40;90.90;;;;;;6199722;28;20431;-77
2021/03/01 06:00:12;;;;;;;18.93;12.33;;;1.30;90.90;;;;;;6199908;28;20125;-76
2021/03/01 06:03:14;;;;;;;31.93;17.70;;;1.30;91.00;;;;;;6198984;28;20043;-76
2021/03/01 06:06:15;;;;;;;24.77;15.37;;;1.30;91.00;;;;;;6199826;28;20046;-76
2021/03/01 06:09:16;;;;;;;23.57;14.77;;;1.30;91.10;;;;;;6202414;23;20031;-75
2021/03/01 06:12:18;;;;;;;23.63;13.57;;;1.20;91.10;;;;;;6207271;28;20082;-76
2021/03/01 06:15:20;;;;;;;24.17;13.37;;;1.20;91.20;;;;;;6212169;28;20030;-76
2021/03/01 06:18:23;;;;;;;24.07;14.13;;;1.20;91.30;;;;;;6216588;28;20047;-76
2021/03/01 06:21:25;;;;;;;25.73;15.43;;;1.20;91.30;;;;;;6215857;28;20029;-76
2021/03/01 06:24:26;;;;;;;17.63;12.90;;;1.10;91.40;;;;;;6191839;28;20140;-78
2021/03/01 06:27:28;;;;;;;24.23;14.73;;;1.10;91.50;;;;;;6191441;28;20049;-78
2021/03/01 06:30:31;;;;;;;18.60;13.17;;;1.10;91.60;;;;;;6187679;28;20134;-79
2021/03/01 06:33:33;;;;;;;22.10;14.73;;;1.20;91.80;;;;;;6183129;28;20142;-79
2021/03/01 06:36:54;;;;;;;23.57;16.13;;;1.10;91.60;;;;;;6195814;28;20064;-80
2021/03/01 06:39:56;;;;;;;21.13;14.40;;;1.20;91.70;;;;;;6187830;28;20053;-77
2021/03/01 06:43:09;;;;;;;21.63;14.57;;;1.20;91.60;;;;;;6192147;28;20074;-79
2021/03/01 06:46:13;;;;;;;19.63;13.57;;;1.30;91.50;;;;;;6191488;28;20100;-78
2021/03/01 06:49:15;;;;;;;19.97;12.90;;;1.40;91.40;;;;;;6187218;28;20067;-79
2021/03/01 06:52:36;;;;;;;19.73;13.83;;;1.40;91.30;;;;;;6185520;28;20047;-79
2021/03/01 06:55:38;;;;;;;20.97;13.40;;;1.60;91.10;;;;;;6192137;28;20097;-78
2021/03/01 06:58:41;;;;;;;25.33;15.93;;;1.70;91.00;;;;;;6196651;28;20504;-77
2021/03/01 07:01:47;;;;;;;23.80;15.03;;;1.80;90.70;;;;;;6190817;28;20085;-80
2021/03/01 07:04:56;;;;;;;21.50;14.20;;;1.90;90.40;;;;;;6172672;28;20055;-80
2021/03/01 07:07:58;;;;;;;14.73;10.47;;;2.00;90.20;;;;;;6180636;28;20110;-78
2021/03/01 07:11:00;;;;;;;23.30;14.07;;;2.10;89.90;;;;;;6182534;28;20097;-78
2021/03/01 07:14:09;;;;;;;24.33;14.23;;;2.20;89.10;;;;;;6174904;28;20050;-79
2021/03/01 07:17:11;;;;;;;20.73;12.67;;;2.40;88.40;;;;;;6175659;28;20115;-80
2021/03/01 07:20:14;;;;;;;20.93;12.33;;;2.50;88.00;;;;;;6178085;28;20075;-78
2021/03/01 07:23:17;;;;;;;29.77;14.83;;;2.70;87.20;;;;;;6182513;28;20110;-80
2021/03/01 07:26:18;;;;;;;22.20;13.63;;;2.80;86.40;;;;;;6179706;28;20106;-79
2021/03/01 07:29:22;;;;;;;24.23;12.70;;;3.00;85.30;;;;;;6193608;28;20058;-78
2021/03/01 07:32:26;;;;;;;22.67;13.50;;;3.20;84.70;;;;;;6165844;28;20043;-79
2021/03/01 07:35:27;;;;;;;18.87;9.90;;;3.40;83.50;;;;;;6174887;28;20129;-78
2021/03/01 07:38:29;;;;;;;19.00;11.47;;;3.60;82.90;;;;;;6181522;28;20533;-78
2021/03/01 07:41:30;;;;;;;22.08;13.70;;;3.90;81.40;;;;;;6181193;28;20523;-78
2021/03/01 07:44:35;;;;;;;22.70;13.18;;;4.20;80.10;;;;;;6183420;28;20462;-77
2021/03/01 07:47:36;;;;;;;23.45;13.18;;;4.30;79.10;;;;;;6178281;28;20142;-78
2021/03/01 07:50:41;;;;;;;17.52;11.93;;;4.50;78.00;;;;;;6173186;28;20170;-78
2021/03/01 07:53:52;;;;;;;16.75;11.55;;;4.70;77.20;;;;;;6171516;28;20043;-79
2021/03/01 07:56:53;;;;;;;17.20;9.73;;;4.90;75.90;;;;;;6178654;28;20055;-79
2021/03/01 07:59:57;;;;;;;19.80;12.05;;;5.00;74.90;;;;;;6174493;28;20047;-80
2021/03/01 08:02:59;;;;;;;19.38;11.77;;;5.20;74.10;;;;;;6178192;28;20492;-79
2021/03/01 08:06:00;;;;;;;19.08;11.57;;;5.30;73.50;;;;;;6173800;28;20046;-78
2021/03/01 08:09:01;;;;;;;34.47;14.23;;;5.40;73.20;;;;;;6168747;28;20084;-81
2021/03/01 08:12:03;;;;;;;15.13;10.68;;;5.60;72.00;;;;;;6159784;28;20054;-81
2021/03/01 08:15:08;;;;;;;14.70;9.98;;;5.70;71.40;;;;;;6183767;28;20404;-80
2021/03/01 08:18:11;;;;;;;16.48;11.55;;;5.90;70.90;;;;;;6174018;28;20420;-80
2021/03/01 08:21:13;;;;;;;17.35;9.60;;;6.20;69.00;;;;;;6163326;28;20127;-81
2021/03/01 08:24:44;;;;;;;13.25;11.23;;;6.30;69.10;;;;;;6175604;28;20185;-82
2021/03/01 08:27:46;;;;;;;14.45;10.93;;;6.60;68.40;;;;;;6169258;28;20043;-80
2021/03/01 08:30:48;;;;;;;17.10;11.10;;;6.90;67.20;;;;;;6176448;28;20515;-79
2021/03/01 08:33:50;;;;;;;16.27;10.57;;;7.40;65.60;;;;;;6173443;28;20504;-80
2021/03/01 08:36:52;;;;;;;14.32;10.70;;;7.60;64.70;;;;;;6164638;28;20046;-81
2021/03/01 08:40:04;;;;;;;17.67;10.23;;;7.70;62.70;;;;;;6180991;28;20046;-80
2021/03/01 08:43:06;;;;;;;19.75;11.18;;;7.70;62.70;;;;;;6171752;28;20053;-80
2021/03/01 08:46:17;;;;;;;16.45;10.70;;;8.00;62.50;;;;;;6178940;28;20055;-80
2021/03/01 08:49:23;;;;;;;14.93;11.05;;;8.20;61.90;;;;;;6170645;28;20108;-79
2021/03/01 08:52:24;;;;;;;14.80;10.00;;;8.30;61.60;;;;;;6177084;28;20098;-79
2021/03/01 08:55:26;;;;;;;16.10;11.23;;;8.50;61.90;;;;;;6181851;28;20054;-81
2021/03/01 08:58:30;;;;;;;13.48;8.32;;;8.90;60.20;;;;;;6173136;28;20047;-81
2021/03/01 09:01:32;;;;;;;14.70;10.57;;;9.00;58.70;;;;;;6174129;28;20078;-81
2021/03/01 09:04:33;;;;;;;15.30;9.85;;;8.90;58.80;;;;;;6170729;28;20106;-79
2021/03/01 09:07:42;;;;;;;14.63;11.43;;;8.90;58.70;;;;;;6176798;28;20583;-80
2021/03/01 09:10:45;;;;;;;18.08;11.70;;;8.70;59.20;;;;;;6174238;28;20055;-81
2021/03/01 09:13:48;;;;;;;13.57;10.55;;;8.80;59.50;;;;;;6181184;28;20511;-80
2021/03/01 09:16:54;;;;;;;20.40;11.30;;;9.10;59.10;;;;;;6180923;28;20056;-79
2021/03/01 09:19:56;;;;;;;14.80;10.40;;;9.30;58.10;;;;;;6171861;28;20166;-80
2021/03/01 09:22:57;;;;;;;15.07;10.40;;;9.40;58.10;;;;;;6177354;28;20141;-80
2021/03/01 09:25:58;;;;;;;29.02;10.18;;;9.60;57.00;;;;;;6163680;28;20058;-78
2021/03/01 09:29:04;;;;;;;16.25;10.32;;;9.70;56.10;;;;;;6171318;28;20258;-79
2021/03/01 09:32:07;;;;;;;16.42;11.90;;;9.60;56.80;;;;;;6171163;28;20185;-79
2021/03/01 09:35:19;;;;;;;15.75;11.07;;;9.70;57.00;;;;;;6168541;28;20079;-79
2021/03/01 09:38:21;;;;;;;15.82;10.18;;;10.00;56.60;;;;;;6174418;28;20106;-80
2021/03/01 09:41:22;;;;;;;17.88;11.98;;;10.30;55.50;;;;;;6163904;28;20075;-79
2021/03/01 09:44:25;;;;;;;19.15;11.00;;;10.50;54.70;;;;;;6171912;28;20077;-79
2021/03/01 09:47:28;;;;;;;14.55;9.70;;;10.60;54.80;;;;;;6168360;28;20051;-79
2021/03/01 09:50:30;;;;;;;16.10;10.55;;;10.70;54.50;;;;;;6182819;28;20051;-80
2021/03/01 09:53:31;;;;;;;15.52;10.77;;;10.90;54.10;;;;;;6182058;28;20074;-80
2021/03/01 09:56:43;;;;;;;19.85;10.98;;;11.10;53.70;;;;;;6184211;28;20062;-80
2021/03/01 09:59:45;;;;;;;13.50;9.23;;;11.30;53.30;;;;;;6187324;28;20098;-79
2021/03/01 10:02:55;;;;;;;16.17;9.93;;;11.40;52.20;;;;;;6174914;28;20047;-80
2021/03/01 10:05:56;;;;;;;15.93;10.15;;;11.60;52.60;;;;;;6180582;28;20505;-79
2021/03/01 10:09:03;;;;;;;11.85;8.48;;;11.80;52.00;;;;;;6165323;28;20078;-80
2021/03/01 10:12:06;;;;;;;12.13;8.53;;;11.80;51.50;;;;;;6171968;28;20050;-81
2021/03/01 10:15:09;;;;;;;12.73;8.55;;;11.60;51.50;;;;;;6177649;28;20788;-80
2021/03/01 10:18:13;;;;;;;12.00;9.60;;;11.50;51.70;;;;;;6174872;28;20133;-81
2021/03/01 10:21:15;;;;;;;12.80;9.13;;;11.60;51.50;;;;;;6179912;28;20515;-81
2021/03/01 10:24:18;;;;;;;13.07;9.75;;;11.70;52.50;;;;;;6165673;28;20051;-80
2021/03/01 10:27:19;;;;;;;19.55;9.00;;;12.00;50.90;;;;;;6188668;28;20132;-81
2021/03/01 10:30:21;;;;;;;20.58;10.75;;;12.10;50.60;;;;;;6167695;28;20081;-80
2021/03/01 10:33:23;;;;;;;14.85;8.10;;;12.20;50.50;;;;;;6165937;28;20046;-80
2021/03/01 10:36:27;;;;;;;12.00;8.88;;;12.30;49.70;;;;;;6159662;28;20106;-80
2021/03/01 10:39:30;;;;;;;9.98;7.72;;;12.20;48.80;;;;;;6181884;28;20468;-79
2021/03/01 10:42:38;;;;;;;18.63;9.32;;;12.10;48.90;;;;;;6167717;28;20050;-81
2021/03/01 10:45:46;;;;;;;10.52;7.95;;;12.00;48.60;;;;;;6175551;28;20081;-80
2021/03/01 10:48:48;;;;;;;13.32;8.60;;;12.10;49.20;;;;;;6169493;28;20046;-80
2021/03/01 10:51:51;;;;;;;11.55;9.30;;;12.20;48.70;;;;;;6167416;28;20046;-81
2021/03/01 10:54:54;;;;;;;16.58;10.38;;;12.40;48.80;;;;;;6179455;28;20047;-80
2021/03/01 10:57:55;;;;;;;10.52;7.28;;;12.40;47.70;;;;;;6166097;28;20043;-80
2021/03/01 11:00:56;;;;;;;13.75;7.68;;;12.30;48.40;;;;;;6173401;28;20043;-80
2021/03/01 11:03:59;;;;;;;11.38;8.60;;;12.60;49.30;;;;;;6175505;28;20043;-81
2021/03/01 11:07:01;;;;;;;12.25;8.23;;;13.00;47.60;;;;;;6180042;28;20077;-81
2021/03/01 11:10:03;;;;;;;8.77;7.38;;;13.00;45.50;;;;;;6167209;28;20051;-81
2021/03/01 11:13:04;;;;;;;9.60;7.40;;;12.90;45.80;;;;;;6174474;28;20511;-81
2021/03/01 11:16:06;;;;;;;11.95;7.65;;;12.70;45.90;;;;;;6167616;28;20057;-80
2021/03/01 11:19:09;;;;;;;6.88;6.25;;;12.80;46.80;;;;;;6170791;28;20121;-81
2021/03/01 11:22:11;;;;;;;8.68;6.40;;;12.90;46.30;;;;;;6169292;28;20524;-81
2021/03/01 11:25:13;;;;;;;13.95;8.70;;;13.00;46.00;;;;;;6180247;28;20051;-81
2021/03/01 11:28:14;;;;;;;11.35;8.93;;;13.30;45.80;;;;;;6170378;28;20047;-81
2021/03/01 11:31:16;;;;;;;10.77;8.93;;;13.70;44.30;;;;;;6170725;28;20146;-81
2021/03/01 11:34:19;;;;;;;9.38;7.03;;;13.50;44.10;;;;;;6173950;28;20098;-81
2021/03/01 11:37:20;;;;;;;12.35;7.15;;;13.50;44.30;;;;;;6175139;28;20078;-80
2021/03/01 11:40:21;;;;;;;13.45;8.50;;;13.70;44.40;;;;;;6169555;28;20076;-80
2021/03/01 11:43:23;;;;;;;10.18;7.90;;;14.00;43.90;;;;;;6172011;28;20070;-81
2021/03/01 11:46:24;;;;;;;9.25;7.25;;;14.00;42.30;;;;;;6168071;28;20074;-80
2021/03/01 11:49:26;;;;;;;11.25;7.95;;;14.10;43.70;;;;;;6183688;28;20059;-78
2021/03/01 11:52:27;;;;;;;9.57;6.30;;;14.30;42.90;;;;;;6168373;28;20043;-80
2021/03/01 11:55:29;;;;;;;10.10;6.22;;;14.30;42.20;;;;;;6174962;28;20050;-80
2021/03/01 11:58:30;;;;;;;10.05;6.38;;;14.20;42.50;;;;;;6180728;28;20046;-79
2021/03/01 12:01:33;;;;;;;5.70;5.07;;;14.20;40.60;;;;;;6180219;28;20081;-81
2021/03/01 12:04:35;;;;;;;9.18;7.30;;;14.10;40.50;;;;;;6187581;28;20043;-80
2021/03/01 12:07:36;;;;;;;10.38;5.88;;;14.20;40.10;;;;;;6166471;28;20051;-81
2021/03/01 12:10:38;;;;;;;9.45;6.32;;;14.30;39.30;;;;;;6170940;28;20236;-81
2021/03/01 12:13:39;;;;;;;9.07;6.00;;;14.10;39.50;;;;;;6173888;28;20126;-79
2021/03/01 12:16:40;;;;;;;7.15;6.40;;;14.20;39.80;;;;;;6171521;28;20074;-80
2021/03/01 12:19:43;;;;;;;8.15;6.93;;;14.20;39.90;;;;;;6192447;28;20086;-79
2021/03/01 12:22:44;;;;;;;7.43;5.78;;;14.30;39.90;;;;;;6178908;28;20078;-78
2021/03/01 12:25:45;;;;;;;7.22;6.53;;;14.50;39.50;;;;;;6172265;28;20074;-80
2021/03/01 12:28:46;;;;;;;10.32;6.65;;;14.50;39.30;;;;;;6184808;28;20074;-80
2021/03/01 12:31:48;;;;;;;9.18;6.25;;;14.50;40.00;;;;;;6178134;28;20071;-81
2021/03/01 12:34:50;;;;;;;9.30;6.72;;;14.50;39.00;;;;;;6192277;28;20051;-80
2021/03/01 12:37:52;;;;;;;9.98;6.53;;;14.40;39.40;;;;;;6171127;28;20050;-81
2021/03/01 12:40:53;;;;;;;6.85;5.43;;;14.50;39.10;;;;;;6180934;28;20039;-80
2021/03/01 12:43:54;;;;;;;8.57;6.25;;;14.50;38.60;;;;;;6167159;28;20090;-80
2021/03/01 12:46:56;;;;;;;8.77;5.57;;;14.50;38.60;;;;;;6177060;28;20066;-80
2021/03/01 12:49:58;;;;;;;14.98;7.22;;;14.60;39.10;;;;;;6170923;28;20078;-79
2021/03/01 12:53:00;;;;;;;8.00;5.82;;;14.60;38.90;;;;;;6177479;28;20412;-79
2021/03/01 12:56:01;;;;;;;6.43;5.70;;;14.70;38.70;;;;;;6184435;28;20047;-79
2021/03/01 12:59:03;;;;;;;6.40;5.53;;;14.70;38.50;;;;;;6175348;28;20058;-79
2021/03/01 13:02:04;;;;;;;8.43;6.07;;;14.70;38.40;;;;;;6177834;28;20137;-79
2021/03/01 13:05:08;;;;;;;10.13;6.05;;;14.70;38.40;;;;;;6185322;28;20543;-79
2021/03/01 13:08:10;;;;;;;11.15;7.43;;;14.80;38.40;;;;;;6182699;28;20557;-80
2021/03/01 13:11:11;;;;;;;9.07;5.38;;;15.10;37.50;;;;;;6177026;28;20050;-79
2021/03/01 13:14:13;;;;;;;7.68;6.15;;;15.30;36.80;;;;;;6175616;28;20483;-80
2021/03/01 13:17:14;;;;;;;9.00;6.40;;;15.30;36.30;;;;;;6182849;28;20046;-81
2021/03/01 13:20:16;;;;;;;9.52;6.22;;;15.20;36.80;;;;;;6176251;28;20050;-79
2021/03/01 13:23:18;;;;;;;11.13;6.85;;;15.20;36.70;;;;;;6168572;28;20049;-79
2021/03/01 13:26:19;;;;;;;7.72;6.57;;;15.10;36.60;;;;;;6174691;28;20055;-80
2021/03/01 13:29:20;;;;;;;6.65;5.55;;;15.10;36.60;;;;;;6180147;28;20057;-81
2021/03/01 13:32:22;;;;;;;7.78;6.38;;;15.00;36.00;;;;;;6185544;28;20054;-79
2021/03/01 13:35:24;;;;;;;6.82;5.15;;;15.10;36.20;;;;;;6174415;28;20390;-81
2021/03/01 13:38:25;;;;;;;9.40;6.20;;;15.00;36.90;;;;;;6190000;28;20258;-79
2021/03/01 13:41:27;;;;;;;7.78;6.72;;;15.10;37.60;;;;;;6173556;28;20051;-79
2021/03/01 13:44:28;;;;;;;9.05;6.45;;;15.30;37.90;;;;;;6184730;28;20141;-81
2021/03/01 13:47:29;;;;;;;8.43;6.30;;;15.50;38.00;;;;;;6178497;28;20043;-79
2021/03/01 13:50:32;;;;;;;7.72;6.80;;;15.60;38.70;;;;;;6178953;28;20047;-79
2021/03/01 13:53:33;;;;;;;18.73;11.20;;;15.70;37.70;;;;;;6173353;28;20043;-77
2021/03/01 13:56:35;;;;;;;7.50;6.68;;;15.50;39.30;;;;;;6169820;28;20047;-78
2021/03/01 13:59:36;;;;;;;9.70;6.85;;;15.70;37.90;;;;;;6170357;28;20058;-78
2021/03/01 14:02:37;;;;;;;8.77;7.00;;;15.60;38.20;;;;;;6171535;28;20133;-79
2021/03/01 14:05:40;;;;;;;9.63;6.68;;;15.60;39.60;;;;;;6173707;28;20066;-79
2021/03/01 14:08:43;;;;;;;12.45;9.35;;;15.60;39.10;;;;;;6172233;28;20117;-81
2021/03/01 14:11:44;;;;;;;8.00;6.80;;;15.60;39.00;;;;;;6185703;28;20042;-79
2021/03/01 14:14:45;;;;;;;9.55;6.50;;;15.60;39.00;;;;;;6182140;28;20501;-79
2021/03/01 14:17:47;;;;;;;10.15;8.15;;;15.60;39.30;;;;;;6169261;28;20051;-79
2021/03/01 14:20:50;;;;;;;13.75;9.48;;;15.70;39.70;;;;;;6172493;28;20126;-78
2021/03/01 14:23:51;;;;;;;12.35;8.45;;;15.50;39.30;;;;;;6170189;28;20043;-79
2021/03/01 14:26:52;;;;;;;13.30;9.60;;;15.40;40.00;;;;;;6171488;28;20078;-79
2021/03/01 14:29:54;;;;;;;11.27;7.75;;;15.40;40.00;;;;;;6180122;28;20134;-79
2021/03/01 14:32:55;;;;;;;13.25;8.50;;;15.30;40.40;;;;;;6167777;28;20034;-79
2021/03/01 14:35:58;;;;;;;12.93;9.43;;;15.20;40.30;;;;;;6176726;28;20043;-79
2021/03/01 14:38:59;;;;;;;12.07;8.98;;;15.10;41.00;;;;;;6178422;28;20057;-79
2021/03/01 14:42:00;;;;;;;9.10;7.50;;;15.00;41.20;;;;;;6178225;28;20126;-79
2021/03/01 14:45:02;;;;;;;14.65;8.70;;;15.10;41.00;;;;;;6173661;28;20082;-80
2021/03/01 14:48:04;;;;;;;10.75;8.43;;;15.20;40.70;;;;;;6170768;28;20070;-79
2021/03/01 14:51:06;;;;;;;14.95;10.15;;;15.30;40.80;;;;;;6169502;28;20090;-79
2021/03/01 14:54:08;;;;;;;14.55;9.57;;;15.30;40.80;;;;;;6176392;28;20051;-78
2021/03/01 14:57:09;;;;;;;11.93;8.23;;;15.10;40.80;;;;;;6174496;28;20046;-79
2021/03/01 15:00:11;;;;;;;15.65;9.45;;;15.10;41.00;;;;;;6188790;28;20508;-79
2021/03/01 15:03:13;;;;;;;18.83;10.60;;;15.00;41.50;;;;;;6168181;28;20059;-79
2021/03/01 15:06:15;;;;;;;12.13;8.18;;;15.00;41.70;;;;;;6183436;28;20501;-79
2021/03/01 15:09:16;;;;;;;14.93;8.82;;;14.90;41.70;;;;;;6164255;28;20101;-79
2021/03/01 15:12:18;;;;;;;13.63;10.57;;;14.90;41.80;;;;;;6180157;28;20099;-79
2021/03/01 15:15:19;;;;;;;13.65;8.40;;;14.80;42.00;;;;;;6173516;28;20078;-79
2021/03/01 15:18:21;;;;;;;14.27;9.25;;;14.70;42.50;;;;;;6177038;28;20055;-79
2021/03/01 15:21:23;;;;;;;11.32;9.10;;;14.60;42.60;;;;;;6167680;28;20515;-79
2021/03/01 15:24:25;;;;;;;12.45;9.38;;;14.60;42.70;;;;;;6191909;28;20046;-79
2021/03/01 15:27:27;;;;;;;12.13;8.20;;;14.60;42.90;;;;;;6197523;28;20070;-79
2021/03/01 15:30:28;;;;;;;9.50;8.20;;;14.50;43.30;;;;;;6179423;28;20058;-79
2021/03/01 15:33:30;;;;;;;11.23;8.95;;;14.50;42.90;;;;;;6165855;28;20047;-78
2021/03/01 15:36:32;;;;;;;10.68;8.50;;;14.40;43.20;;;;;;6168707;28;20420;-79
2021/03/01 15:39:33;;;;;;;12.65;7.65;;;14.30;43.30;;;;;;6185644;28;20070;-79